Nashville, Tennessee
Traffic Map
Current Weather Conditions
Nashville, Tennessee
Scattered Clouds
Scattered Clouds
57°
Feels Like: 57°
Wind Chill: 57° Ceiling: Unl
Heat Index: 57° Visibility: 10mi
Dew Point: 41° Wind: 3mph
Humidity: 55% Direction: ° ()
Pressure: 30.01in Gusts: 0mph
Raw Report DataKBNA 241353Z VRB03KT 10SM FEW200 SCT250 14/05 A3001 RMK AO2 SLP159 T01390050
Traffic Incident Summary
Active as of:
Severity:
Category:
InformationThere was an issue retrieving the traffic information for this location. Please try a different location or try again shortly.
Advertisements
At Last! Intellicast now available for iPhone and Android